Time;durP1;ratioP1;P1;durP2;ratioP2;P2;SDS_P1;SDS_P2;PMS_P1;PMS_P2;Temp;Humidity;BMP_temperature;BMP_pressure;BME280_temperature;BME280_humidity;BME280_pressure;Samples;Min_cycle;Max_cycle;Signal;HPM_P1;HPM_P2
2023/07/20 00:02:59;;;;;;;1.10;1.10;;;;;;;;;;6285943;28;20477;-79
2023/07/20 00:06:04;;;;;;;8.32;1.10;;;;;;;;;;6285681;28;20259;-79
2023/07/20 00:09:08;;;;;;;1.10;1.10;;;;;;;;;;6288479;28;20247;-79
2023/07/20 00:12:12;;;;;;;1.23;1.23;;;;;;;;;;6287435;28;20240;-79
2023/07/20 00:15:17;;;;;;;1.00;1.00;;;;;;;;;;6286790;28;20240;-79
2023/07/20 00:18:21;;;;;;;2.65;1.33;;;;;;;;;;6286784;28;20259;-78
2023/07/20 00:21:25;;;;;;;1.92;1.30;;;;;;;;;;6286254;28;20239;-79
2023/07/20 00:24:29;;;;;;;1.13;1.13;;;;;;;;;;6286018;28;20235;-79
2023/07/20 00:27:33;;;;;;;1.52;1.42;;;;;;;;;;6286198;28;20516;-79
2023/07/20 00:30:39;;;;;;;1.40;1.40;;;;;;;;;;6286156;28;20244;-79
2023/07/20 00:33:43;;;;;;;1.30;1.30;;;;;;;;;;6284599;28;20271;-79
2023/07/20 00:36:48;;;;;;;1.58;1.00;;;;;;;;;;6284964;28;20267;-79
2023/07/20 00:39:54;;;;;;;1.13;1.13;;;;;;;;;;6286319;28;20291;-79
2023/07/20 00:42:57;;;;;;;1.10;1.10;;;;;;;;;;6286278;28;20271;-79
2023/07/20 00:46:03;;;;;;;1.98;1.35;;;;;;;;;;6286335;28;20236;-78
2023/07/20 00:49:07;;;;;;;4.70;1.40;;;;;;;;;;6285824;28;20231;-79
2023/07/20 00:52:12;;;;;;;2.00;1.70;;;;;;;;;;6283879;28;20271;-79
2023/07/20 00:55:16;;;;;;;5.70;1.80;;;;;;;;;;6284772;28;20267;-78
2023/07/20 00:58:20;;;;;;;1.58;1.08;;;;;;;;;;6285141;28;20267;-79
2023/07/20 01:01:37;;;;;;;2.05;1.30;;;;;;;;;;6285353;28;20283;-79
2023/07/20 01:04:42;;;;;;;2.90;1.42;;;;;;;;;;6259905;28;20390;-73
2023/07/20 01:07:53;;;;;;;2.72;1.40;;;;;;;;;;6262974;28;20272;-74
2023/07/20 01:11:02;;;;;;;1.80;1.42;;;;;;;;;;6263456;28;20271;-73
2023/07/20 01:14:06;;;;;;;2.05;1.35;;;;;;;;;;6263629;28;20268;-73
2023/07/20 01:17:10;;;;;;;2.35;1.50;;;;;;;;;;6265098;28;20245;-74
2023/07/20 01:20:16;;;;;;;2.72;1.20;;;;;;;;;;6263660;28;20296;-74
2023/07/20 01:23:32;;;;;;;2.35;1.67;;;;;;;;;;6264768;28;20244;-73
2023/07/20 01:27:00;;;;;;;1.40;1.30;;;;;;;;;;6263198;28;20268;-73
2023/07/20 01:30:36;;;;;;;1.30;1.27;;;;;;;;;;6263404;28;20442;-74
2023/07/20 01:33:43;;;;;;;5.57;1.50;;;;;;;;;;6221469;28;20275;-74
2023/07/20 01:36:47;;;;;;;4.20;1.25;;;;;;;;;;6264814;28;20240;-74
2023/07/20 01:39:51;;;;;;;2.72;1.48;;;;;;;;;;6264420;28;20499;-74
2023/07/20 01:42:55;;;;;;;3.60;1.30;;;;;;;;;;6264696;28;20240;-74
2023/07/20 01:45:59;;;;;;;4.15;1.30;;;;;;;;;;6247098;28;20326;-74
2023/07/20 01:49:05;;;;;;;3.72;1.40;;;;;;;;;;6264264;28;20245;-74
2023/07/20 01:52:09;;;;;;;1.98;1.40;;;;;;;;;;6247297;28;20431;-74
2023/07/20 01:55:13;;;;;;;2.60;1.63;;;;;;;;;;6263710;28;20418;-74
2023/07/20 01:58:16;;;;;;;2.40;1.40;;;;;;;;;;6264307;28;20244;-74
2023/07/20 02:01:21;;;;;;;5.22;1.65;;;;;;;;;;6262293;28;20437;-74
2023/07/20 02:04:28;;;;;;;3.17;1.42;;;;;;;;;;6263202;28;20287;-73
2023/07/20 02:07:31;;;;;;;1.50;1.30;;;;;;;;;;6262844;28;20287;-74
2023/07/20 02:10:36;;;;;;;6.22;1.58;;;;;;;;;;6264166;28;20252;-74
2023/07/20 02:13:39;;;;;;;2.92;1.80;;;;;;;;;;6262376;28;20268;-74
2023/07/20 02:16:43;;;;;;;2.15;1.75;;;;;;;;;;6261819;28;20273;-74
2023/07/20 02:19:51;;;;;;;9.52;1.85;;;;;;;;;;6264394;28;20260;-74
2023/07/20 02:22:55;;;;;;;4.38;1.80;;;;;;;;;;6261606;28;20275;-74
2023/07/20 02:25:59;;;;;;;4.50;1.77;;;;;;;;;;6263126;28;20316;-75
2023/07/20 02:29:04;;;;;;;5.07;1.38;;;;;;;;;;6263397;28;20252;-75
2023/07/20 02:32:09;;;;;;;3.85;1.38;;;;;;;;;;6261973;28;20272;-74
2023/07/20 02:35:15;;;;;;;5.28;2.08;;;;;;;;;;6261948;28;20268;-75
2023/07/20 02:38:19;;;;;;;1.70;1.58;;;;;;;;;;6261640;28;20639;-74
2023/07/20 02:41:22;;;;;;;2.67;1.48;;;;;;;;;;6261119;28;20291;-74
2023/07/20 02:44:26;;;;;;;1.67;1.38;;;;;;;;;;6262277;28;20272;-74
2023/07/20 02:47:30;;;;;;;1.42;1.30;;;;;;;;;;6263872;28;20419;-75
2023/07/20 02:50:36;;;;;;;1.35;1.27;;;;;;;;;;6263550;28;20245;-74
2023/07/20 02:53:41;;;;;;;1.90;1.30;;;;;;;;;;6262785;28;20245;-75
2023/07/20 02:56:45;;;;;;;2.17;1.45;;;;;;;;;;6261345;28;20272;-75
2023/07/20 02:59:49;;;;;;;2.53;1.38;;;;;;;;;;6244353;28;20303;-74
2023/07/20 03:02:55;;;;;;;2.50;1.50;;;;;;;;;;6262453;28;20287;-74
2023/07/20 03:06:01;;;;;;;1.40;1.40;;;;;;;;;;6262500;28;20256;-75
2023/07/20 03:09:06;;;;;;;3.30;1.50;;;;;;;;;;6260919;28;20267;-74
2023/07/20 03:12:10;;;;;;;2.65;1.50;;;;;;;;;;6260199;28;20268;-74
2023/07/20 03:15:14;;;;;;;3.83;1.70;;;;;;;;;;6262521;28;20240;-75
2023/07/20 03:18:18;;;;;;;4.03;1.60;;;;;;;;;;6262876;28;20241;-74
2023/07/20 03:21:24;;;;;;;1.75;1.65;;;;;;;;;;6260810;28;20593;-74
2023/07/20 03:24:27;;;;;;;5.00;1.50;;;;;;;;;;6260251;28;20282;-75
2023/07/20 03:27:31;;;;;;;2.95;1.50;;;;;;;;;;6260565;28;20275;-75
2023/07/20 03:30:37;;;;;;;1.60;1.50;;;;;;;;;;6260025;28;20280;-74
2023/07/20 03:33:41;;;;;;;3.20;1.60;;;;;;;;;;6260610;28;20264;-74
2023/07/20 03:36:48;;;;;;;4.88;1.85;;;;;;;;;;6262102;28;20245;-75
2023/07/20 03:39:52;;;;;;;6.53;1.60;;;;;;;;;;6260408;28;20292;-74
2023/07/20 03:42:56;;;;;;;3.03;1.58;;;;;;;;;;6261352;28;20423;-75
2023/07/20 03:45:59;;;;;;;1.80;1.55;;;;;;;;;;6262599;28;20267;-75
2023/07/20 03:49:03;;;;;;;2.60;1.50;;;;;;;;;;6261744;28;20244;-74
2023/07/20 03:52:09;;;;;;;2.55;1.70;;;;;;;;;;6261800;28;20249;-74
2023/07/20 03:55:12;;;;;;;6.20;1.70;;;;;;;;;;6267661;28;20237;-74
2023/07/20 03:58:16;;;;;;;1.98;1.77;;;;;;;;;;6259094;28;20268;-74
2023/07/20 04:01:20;;;;;;;2.10;1.33;;;;;;;;;;6260161;28;20306;-74
2023/07/20 04:04:24;;;;;;;4.88;1.90;;;;;;;;;;6261416;28;20292;-74
2023/07/20 04:07:29;;;;;;;5.80;1.55;;;;;;;;;;6261735;28;20243;-74
2023/07/20 04:10:33;;;;;;;3.90;1.30;;;;;;;;;;6261504;28;20380;-75
2023/07/20 04:13:37;;;;;;;2.67;1.60;;;;;;;;;;6260513;28;20628;-74
2023/07/20 04:16:40;;;;;;;3.10;1.45;;;;;;;;;;6259742;28;20271;-75
2023/07/20 04:19:44;;;;;;;5.20;1.90;;;;;;;;;;6258723;28;20271;-75
2023/07/20 04:22:50;;;;;;;2.22;1.95;;;;;;;;;;6259619;28;20324;-74
2023/07/20 04:25:54;;;;;;;7.63;1.90;;;;;;;;;;6258655;28;20454;-74
2023/07/20 04:28:59;;;;;;;4.75;1.80;;;;;;;;;;6261165;28;20245;-74
2023/07/20 04:32:10;;;;;;;2.90;1.50;;;;;;;;;;6259269;28;20280;-75
2023/07/20 04:35:18;;;;;;;5.65;1.90;;;;;;;;;;6258587;28;20268;-74
2023/07/20 04:38:26;;;;;;;6.25;2.17;;;;;;;;;;6259369;28;20280;-74
2023/07/20 04:41:46;;;;;;;6.50;2.03;;;;;;;;;;6262940;28;20287;-74
2023/07/20 04:44:53;;;;;;;5.55;1.90;;;;;;;;;;6263890;28;20284;-75
2023/07/20 04:47:57;;;;;;;7.72;1.88;;;;;;;;;;6263218;28;20271;-74
2023/07/20 04:51:02;;;;;;;2.42;1.80;;;;;;;;;;6247559;28;20299;-74
2023/07/20 04:54:07;;;;;;;4.25;1.85;;;;;;;;;;6262887;28;20439;-74
2023/07/20 04:57:13;;;;;;;3.38;2.08;;;;;;;;;;6247088;28;20344;-74
2023/07/20 05:00:22;;;;;;;5.63;1.80;;;;;;;;;;6263569;28;20447;-74
2023/07/20 05:03:26;;;;;;;6.15;2.40;;;;;;;;;;6253999;28;20345;-75
2023/07/20 05:06:31;;;;;;;7.70;2.00;;;;;;;;;;6255724;28;20265;-75
2023/07/20 05:09:37;;;;;;;10.35;2.33;;;;;;;;;;6255947;28;20269;-74
2023/07/20 05:12:41;;;;;;;2.67;2.00;;;;;;;;;;6255612;28;20272;-74
2023/07/20 05:15:45;;;;;;;4.38;1.80;;;;;;;;;;6240606;28;20265;-74
2023/07/20 05:18:52;;;;;;;5.93;2.08;;;;;;;;;;6254706;28;20525;-74
2023/07/20 05:21:56;;;;;;;7.18;2.30;;;;;;;;;;6255254;28;20604;-76
2023/07/20 05:25:04;;;;;;;4.38;2.15;;;;;;;;;;6254899;28;20544;-75
2023/07/20 05:28:08;;;;;;;8.13;2.15;;;;;;;;;;6239845;28;20252;-74
2023/07/20 05:31:12;;;;;;;3.85;2.00;;;;;;;;;;6239994;28;20244;-74
2023/07/20 05:34:16;;;;;;;5.10;1.98;;;;;;;;;;6239517;28;20240;-74
2023/07/20 05:37:20;;;;;;;3.95;1.98;;;;;;;;;;6239825;28;20421;-74
2023/07/20 05:40:25;;;;;;;3.47;2.17;;;;;;;;;;6239856;28;20256;-74
2023/07/20 05:43:29;;;;;;;4.47;1.92;;;;;;;;;;6239759;28;20237;-74
2023/07/20 05:46:33;;;;;;;5.65;2.25;;;;;;;;;;6255201;28;20276;-75
2023/07/20 05:49:57;;;;;;;3.03;2.30;;;;;;;;;;6239719;28;20266;-76
2023/07/20 05:53:01;;;;;;;5.75;2.20;;;;;;;;;;6238942;28;20244;-75
2023/07/20 05:56:09;;;;;;;7.18;2.40;;;;;;;;;;6238829;28;20242;-74
2023/07/20 05:59:13;;;;;;;2.63;2.00;;;;;;;;;;6239955;28;20494;-75
2023/07/20 06:02:17;;;;;;;6.15;2.25;;;;;;;;;;6244704;28;20308;-74
2023/07/20 06:05:21;;;;;;;4.50;2.65;;;;;;;;;;6262373;28;20272;-75
2023/07/20 06:08:25;;;;;;;4.15;2.10;;;;;;;;;;6263905;28;20271;-75
2023/07/20 06:11:31;;;;;;;4.82;2.10;;;;;;;;;;6263438;28;20244;-75
2023/07/20 06:14:35;;;;;;;16.67;2.33;;;;;;;;;;6264383;28;20244;-76
2023/07/20 06:17:38;;;;;;;2.78;1.73;;;;;;;;;;6264351;28;20244;-76
2023/07/20 06:20:43;;;;;;;7.47;2.53;;;;;;;;;;6263384;28;20237;-75
2023/07/20 06:23:47;;;;;;;3.00;2.10;;;;;;;;;;6263904;28;20256;-76
2023/07/20 06:26:52;;;;;;;2.67;2.03;;;;;;;;;;6263213;28;20232;-75
2023/07/20 06:29:56;;;;;;;2.28;2.05;;;;;;;;;;6263668;28;20236;-76
2023/07/20 06:33:00;;;;;;;3.67;2.10;;;;;;;;;;6263793;28;20501;-75
2023/07/20 06:36:04;;;;;;;5.80;2.03;;;;;;;;;;6262958;28;20425;-76
2023/07/20 06:39:08;;;;;;;4.57;2.10;;;;;;;;;;6263461;28;20236;-74
2023/07/20 06:42:16;;;;;;;3.55;2.00;;;;;;;;;;6262963;28;20288;-76
2023/07/20 06:45:20;;;;;;;5.05;2.05;;;;;;;;;;6262673;28;20241;-74
2023/07/20 06:48:24;;;;;;;6.88;2.63;;;;;;;;;;6263312;28;20241;-75
2023/07/20 06:51:27;;;;;;;6.60;2.67;;;;;;;;;;6262810;28;20244;-74
2023/07/20 06:54:32;;;;;;;8.43;2.20;;;;;;;;;;6262218;28;20245;-74
2023/07/20 06:57:40;;;;;;;3.95;2.45;;;;;;;;;;6262420;28;20240;-74
2023/07/20 07:00:49;;;;;;;5.38;2.05;;;;;;;;;;6262634;28;20249;-74
2023/07/20 07:03:53;;;;;;;3.05;2.00;;;;;;;;;;6262443;28;20291;-75
2023/07/20 07:06:59;;;;;;;5.22;2.33;;;;;;;;;;6262036;28;20240;-75
2023/07/20 07:10:04;;;;;;;4.75;2.53;;;;;;;;;;6261817;28;20248;-75
2023/07/20 07:13:10;;;;;;;5.10;2.25;;;;;;;;;;6261448;28;20327;-75
2023/07/20 07:16:14;;;;;;;5.20;2.15;;;;;;;;;;6261676;28;20240;-74
2023/07/20 07:19:22;;;;;;;6.82;2.97;;;;;;;;;;6262217;28;20521;-74
2023/07/20 07:22:26;;;;;;;3.20;2.20;;;;;;;;;;6262169;28;20441;-74
2023/07/20 07:25:31;;;;;;;4.70;2.38;;;;;;;;;;6262081;28;20331;-74
2023/07/20 07:28:36;;;;;;;5.28;2.08;;;;;;;;;;6260406;28;20428;-76
2023/07/20 07:31:40;;;;;;;5.88;2.05;;;;;;;;;;6261398;28;20260;-74
2023/07/20 07:34:46;;;;;;;4.75;2.05;;;;;;;;;;6261518;28;20235;-74
2023/07/20 07:37:50;;;;;;;2.42;2.20;;;;;;;;;;6261286;28;20244;-75
2023/07/20 07:41:14;;;;;;;3.13;2.10;;;;;;;;;;6260967;28;20517;-75
2023/07/20 07:44:21;;;;;;;2.13;1.90;;;;;;;;;;6261460;28;20263;-75
2023/07/20 07:47:25;;;;;;;2.08;1.88;;;;;;;;;;6262201;28;20325;-74
2023/07/20 07:50:29;;;;;;;3.35;2.22;;;;;;;;;;6262083;28;20232;-74
2023/07/20 07:53:35;;;;;;;4.28;1.90;;;;;;;;;;6260885;28;20369;-74
2023/07/20 07:56:39;;;;;;;2.35;2.20;;;;;;;;;;6261180;28;20248;-75
2023/07/20 07:59:44;;;;;;;2.30;2.10;;;;;;;;;;6261215;28;20239;-74
2023/07/20 08:02:48;;;;;;;2.28;1.70;;;;;;;;;;6260531;28;20299;-75
2023/07/20 08:05:55;;;;;;;2.35;1.80;;;;;;;;;;6258848;28;20267;-75
2023/07/20 08:08:58;;;;;;;3.35;1.90;;;;;;;;;;6260990;28;20329;-74
2023/07/20 08:12:03;;;;;;;2.20;2.10;;;;;;;;;;6260666;28;20240;-73
2023/07/20 08:15:09;;;;;;;7.43;2.10;;;;;;;;;;6262741;28;20244;-75
2023/07/20 08:18:13;;;;;;;3.20;1.55;;;;;;;;;;6265965;28;20496;-74
2023/07/20 08:21:17;;;;;;;5.47;1.70;;;;;;;;;;6265906;28;20243;-74
2023/07/20 08:24:21;;;;;;;2.13;1.45;;;;;;;;;;6266060;28;20268;-74
2023/07/20 08:27:25;;;;;;;1.48;1.38;;;;;;;;;;6265642;28;20253;-74
2023/07/20 08:30:41;;;;;;;1.50;1.50;;;;;;;;;;6265686;28;20240;-74
2023/07/20 08:33:44;;;;;;;1.90;1.50;;;;;;;;;;6265663;28;20237;-76
2023/07/20 08:36:48;;;;;;;4.55;1.42;;;;;;;;;;6265535;28;20505;-74
2023/07/20 08:39:52;;;;;;;1.17;1.17;;;;;;;;;;6265163;28;20244;-74
2023/07/20 08:42:56;;;;;;;1.92;1.40;;;;;;;;;;6265699;28;20272;-75
2023/07/20 08:46:02;;;;;;;3.22;1.70;;;;;;;;;;6265575;28;20237;-74
2023/07/20 08:49:07;;;;;;;1.90;1.80;;;;;;;;;;6264951;28;20240;-75
2023/07/20 08:52:11;;;;;;;1.95;1.42;;;;;;;;;;6265473;28;20405;-76
2023/07/20 08:55:14;;;;;;;2.38;1.85;;;;;;;;;;6265181;28;20248;-75
2023/07/20 08:58:18;;;;;;;1.67;1.67;;;;;;;;;;6265531;28;20232;-75
2023/07/20 09:01:24;;;;;;;2.55;2.00;;;;;;;;;;6264709;28;20256;-76
2023/07/20 09:04:28;;;;;;;2.22;1.90;;;;;;;;;;6265491;28;20299;-75
2023/07/20 09:07:32;;;;;;;1.77;1.60;;;;;;;;;;6265238;28;20241;-75
2023/07/20 09:10:36;;;;;;;2.42;1.95;;;;;;;;;;6265132;28;20248;-76
2023/07/20 09:13:39;;;;;;;4.93;1.85;;;;;;;;;;6265058;28;20240;-76
2023/07/20 09:16:54;;;;;;;3.25;2.10;;;;;;;;;;6265017;28;20243;-74
2023/07/20 09:19:58;;;;;;;1.83;1.65;;;;;;;;;;6264676;28;20245;-75
2023/07/20 09:23:05;;;;;;;1.90;1.80;;;;;;;;;;6264644;28;20271;-74
2023/07/20 09:26:15;;;;;;;2.95;1.75;;;;;;;;;;6264276;28;20233;-75
2023/07/20 09:29:20;;;;;;;3.03;1.90;;;;;;;;;;6264531;28;20240;-74
2023/07/20 09:32:25;;;;;;;1.60;1.50;;;;;;;;;;6264342;28;20236;-74
2023/07/20 09:35:30;;;;;;;2.85;1.70;;;;;;;;;;6264834;28;20240;-74
2023/07/20 09:38:45;;;;;;;2.13;1.77;;;;;;;;;;6264223;28;20406;-74
2023/07/20 09:41:53;;;;;;;1.65;1.55;;;;;;;;;;6264343;28;20253;-74
2023/07/20 09:45:16;;;;;;;1.70;1.60;;;;;;;;;;6263618;28;20260;-75
2023/07/20 09:48:25;;;;;;;2.90;2.53;;;;;;;;;;6263679;28;20240;-75
2023/07/20 09:51:32;;;;;;;2.35;2.22;;;;;;;;;;6264067;28;20244;-75
2023/07/20 09:54:38;;;;;;;3.95;2.03;;;;;;;;;;6264408;28;20449;-75
2023/07/20 09:57:42;;;;;;;3.08;1.88;;;;;;;;;;6264189;28;20236;-75
2023/07/20 10:00:49;;;;;;;1.48;1.42;;;;;;;;;;6264491;28;20252;-75
2023/07/20 10:04:01;;;;;;;2.90;1.80;;;;;;;;;;6262810;28;20339;-75
2023/07/20 10:07:10;;;;;;;3.25;1.30;;;;;;;;;;6263664;28;20241;-75
2023/07/20 10:10:16;;;;;;;2.47;2.38;;;;;;;;;;6263517;28;20257;-75
2023/07/20 10:13:27;;;;;;;2.85;2.65;;;;;;;;;;6263524;28;20236;-75
2023/07/20 10:16:33;;;;;;;2.40;1.88;;;;;;;;;;6263277;28;20240;-75
2023/07/20 10:19:44;;;;;;;3.17;1.83;;;;;;;;;;6262891;28;20241;-75
2023/07/20 10:22:55;;;;;;;1.70;1.60;;;;;;;;;;6263040;28;20525;-75
2023/07/20 10:26:00;;;;;;;1.63;1.50;;;;;;;;;;6263015;28;20539;-75
2023/07/20 10:29:04;;;;;;;1.27;1.27;;;;;;;;;;6262724;28;20244;-75
2023/07/20 10:32:09;;;;;;;2.08;1.50;;;;;;;;;;6263681;28;20244;-75
2023/07/20 10:35:15;;;;;;;1.30;1.30;;;;;;;;;;6262885;28;20240;-76
2023/07/20 10:38:19;;;;;;;1.38;1.38;;;;;;;;;;6262600;28;20240;-76
2023/07/20 10:41:28;;;;;;;2.95;1.35;;;;;;;;;;6263468;28;20240;-75
2023/07/20 10:44:32;;;;;;;2.00;1.48;;;;;;;;;;6263266;28;20268;-75
2023/07/20 10:47:46;;;;;;;1.77;1.60;;;;;;;;;;6262991;28;20236;-75
2023/07/20 10:51:21;;;;;;;1.92;1.40;;;;;;;;;;6262919;28;20237;-76
2023/07/20 10:54:35;;;;;;;2.25;1.70;;;;;;;;;;6262449;28;20240;-75
2023/07/20 10:57:39;;;;;;;1.48;1.42;;;;;;;;;;6262669;28;20233;-76
2023/07/20 11:00:59;;;;;;;2.35;1.80;;;;;;;;;;6262481;28;20244;-76
2023/07/20 11:04:09;;;;;;;1.65;1.55;;;;;;;;;;6261519;28;20284;-75
2023/07/20 11:07:18;;;;;;;1.50;1.50;;;;;;;;;;6262415;28;20236;-75
2023/07/20 11:10:22;;;;;;;1.88;1.70;;;;;;;;;;6262214;28;20244;-75
2023/07/20 11:13:26;;;;;;;1.70;1.60;;;;;;;;;;6262080;28;20232;-75
2023/07/20 11:16:38;;;;;;;1.50;1.40;;;;;;;;;;6262204;28;20248;-75
2023/07/20 11:19:42;;;;;;;2.80;1.52;;;;;;;;;;6262392;28;20434;-76
2023/07/20 11:22:54;;;;;;;1.83;1.15;;;;;;;;;;6262301;28;20247;-76
2023/07/20 11:25:59;;;;;;;0.90;0.90;;;;;;;;;;6262444;28;20355;-75
2023/07/20 11:29:03;;;;;;;1.23;1.00;;;;;;;;;;6259343;28;20268;-76
2023/07/20 11:32:21;;;;;;;2.10;1.10;;;;;;;;;;6262407;28;20509;-75
2023/07/20 11:35:25;;;;;;;1.10;1.00;;;;;;;;;;6262048;28;20248;-75
2023/07/20 11:38:31;;;;;;;1.20;1.10;;;;;;;;;;6261708;28;20232;-75
2023/07/20 11:41:34;;;;;;;1.17;1.17;;;;;;;;;;6261921;28;20248;-75
2023/07/20 11:44:39;;;;;;;2.05;1.27;;;;;;;;;;6261736;28;20267;-75
2023/07/20 11:47:43;;;;;;;1.08;1.08;;;;;;;;;;6262177;28;20501;-76
2023/07/20 11:50:46;;;;;;;1.02;1.02;;;;;;;;;;6260682;28;20501;-75
2023/07/20 11:53:52;;;;;;;1.20;1.20;;;;;;;;;;6261848;28;20407;-76
2023/07/20 11:56:56;;;;;;;1.35;1.25;;;;;;;;;;6261844;28;20240;-76
2023/07/20 12:00:05;;;;;;;1.85;1.10;;;;;;;;;;6260269;28;20288;-74
2023/07/20 12:03:11;;;;;;;1.05;1.05;;;;;;;;;;6262915;28;20297;-74
2023/07/20 12:06:15;;;;;;;1.40;1.40;;;;;;;;;;6261664;28;20263;-74
2023/07/20 12:09:21;;;;;;;1.10;1.10;;;;;;;;;;6261403;28;20434;-74
2023/07/20 12:12:26;;;;;;;1.30;1.20;;;;;;;;;;6260867;28;20243;-75
2023/07/20 12:15:31;;;;;;;1.20;1.20;;;;;;;;;;6261963;28;20259;-74
2023/07/20 12:18:36;;;;;;;1.40;1.40;;;;;;;;;;6261730;28;20244;-74
2023/07/20 12:21:42;;;;;;;1.95;1.50;;;;;;;;;;6259710;28;20272;-75
2023/07/20 12:24:47;;;;;;;3.13;1.60;;;;;;;;;;6261024;28;20268;-74
2023/07/20 12:27:51;;;;;;;1.17;1.17;;;;;;;;;;6261766;28;20236;-73
2023/07/20 12:30:57;;;;;;;2.88;1.20;;;;;;;;;;6261037;28;20405;-73
2023/07/20 12:34:00;;;;;;;3.83;1.20;;;;;;;;;;6260677;28;20247;-73
2023/07/20 12:37:05;;;;;;;1.23;1.20;;;;;;;;;;6261021;28;20241;-74
2023/07/20 12:40:11;;;;;;;1.38;1.38;;;;;;;;;;6260708;28;20236;-74
2023/07/20 12:43:15;;;;;;;1.40;1.40;;;;;;;;;;6260810;28;20245;-75
2023/07/20 12:46:19;;;;;;;1.48;1.48;;;;;;;;;;6260694;28;20264;-74
2023/07/20 12:49:23;;;;;;;1.23;1.20;;;;;;;;;;6261039;28;20430;-76
2023/07/20 12:52:26;;;;;;;3.03;1.50;;;;;;;;;;6260842;28;20240;-75
2023/07/20 12:55:31;;;;;;;3.78;1.40;;;;;;;;;;6260934;28;20253;-75
2023/07/20 12:58:37;;;;;;;4.32;1.35;;;;;;;;;;6260920;28;20236;-76
2023/07/20 13:01:41;;;;;;;1.60;1.50;;;;;;;;;;6263323;28;20265;-76
2023/07/20 13:04:45;;;;;;;1.15;1.15;;;;;;;;;;6264616;28;20240;-75
2023/07/20 13:07:49;;;;;;;1.33;1.20;;;;;;;;;;6264828;28;20240;-75
2023/07/20 13:10:57;;;;;;;1.45;1.45;;;;;;;;;;6265208;28;20252;-75
2023/07/20 13:14:01;;;;;;;1.90;1.30;;;;;;;;;;6264636;28;20237;-75
2023/07/20 13:17:05;;;;;;;1.52;1.42;;;;;;;;;;6264926;28;20248;-74
2023/07/20 13:20:11;;;;;;;1.20;1.20;;;;;;;;;;6264008;28;20244;-75
2023/07/20 13:23:14;;;;;;;1.27;1.27;;;;;;;;;;6263220;28;20549;-75
2023/07/20 13:26:20;;;;;;;1.17;1.17;;;;;;;;;;6264763;28;20263;-75
2023/07/20 13:29:25;;;;;;;1.50;1.48;;;;;;;;;;6264380;28;20245;-75
2023/07/20 13:32:28;;;;;;;1.33;1.23;;;;;;;;;;6264476;28;20236;-75
2023/07/20 13:35:36;;;;;;;2.85;1.38;;;;;;;;;;6264272;28;20252;-75
2023/07/20 13:38:43;;;;;;;1.65;1.35;;;;;;;;;;6263758;28;20248;-76
2023/07/20 13:41:48;;;;;;;1.95;1.35;;;;;;;;;;6263603;28;20240;-75
2023/07/20 13:44:52;;;;;;;1.60;1.23;;;;;;;;;;6264290;28;20264;-74
2023/07/20 13:47:56;;;;;;;1.58;1.45;;;;;;;;;;6263848;28;20264;-74
2023/07/20 13:51:00;;;;;;;1.42;1.33;;;;;;;;;;6263497;28;20509;-75
2023/07/20 13:54:04;;;;;;;1.17;1.10;;;;;;;;;;6263582;28;20397;-74
2023/07/20 13:57:13;;;;;;;1.60;1.50;;;;;;;;;;6263247;28;20252;-75
2023/07/20 14:00:18;;;;;;;1.98;1.17;;;;;;;;;;6263754;28;20506;-75
2023/07/20 14:03:25;;;;;;;1.65;1.55;;;;;;;;;;6263085;28;20295;-75
2023/07/20 14:06:31;;;;;;;0.98;0.98;;;;;;;;;;6263859;28;20268;-74
2023/07/20 14:09:35;;;;;;;1.60;1.00;;;;;;;;;;6262977;28;20245;-75
2023/07/20 14:12:41;;;;;;;1.20;1.20;;;;;;;;;;6262633;28;20244;-75
2023/07/20 14:15:45;;;;;;;1.20;1.20;;;;;;;;;;6263206;28;20264;-75
2023/07/20 14:18:49;;;;;;;2.72;1.42;;;;;;;;;;6263286;28;20256;-75
2023/07/20 14:21:54;;;;;;;4.13;1.30;;;;;;;;;;6263433;28;20240;-75
2023/07/20 14:24:58;;;;;;;1.48;1.23;;;;;;;;;;6263344;28;20236;-75
2023/07/20 14:28:04;;;;;;;1.10;1.10;;;;;;;;;;6262531;28;20450;-75
2023/07/20 14:31:08;;;;;;;1.80;1.30;;;;;;;;;;6262611;28;20236;-75
2023/07/20 14:34:12;;;;;;;1.13;1.13;;;;;;;;;;6260560;28;20389;-74
2023/07/20 14:37:16;;;;;;;1.73;1.10;;;;;;;;;;6263121;28;20252;-75
2023/07/20 14:40:19;;;;;;;2.35;1.50;;;;;;;;;;6263250;28;20242;-75
2023/07/20 14:43:25;;;;;;;1.65;1.55;;;;;;;;;;6262678;28;20240;-74
2023/07/20 14:46:28;;;;;;;1.30;1.30;;;;;;;;;;6262542;28;20271;-75
2023/07/20 14:49:33;;;;;;;2.70;1.40;;;;;;;;;;6262973;28;20244;-74
2023/07/20 14:52:36;;;;;;;2.97;1.45;;;;;;;;;;6262639;28;20240;-74
2023/07/20 14:55:50;;;;;;;1.50;1.40;;;;;;;;;;6262673;28;20244;-75
2023/07/20 14:58:57;;;;;;;1.50;1.40;;;;;;;;;;6262805;28;20244;-74
2023/07/20 15:02:01;;;;;;;1.48;1.40;;;;;;;;;;6261974;28;20580;-75
2023/07/20 15:05:08;;;;;;;3.40;1.77;;;;;;;;;;6262252;28;20240;-75
2023/07/20 15:08:12;;;;;;;2.20;1.48;;;;;;;;;;6262154;28;20269;-75
2023/07/20 15:11:16;;;;;;;1.50;1.42;;;;;;;;;;6262252;28;20420;-75
2023/07/20 15:14:21;;;;;;;1.15;1.15;;;;;;;;;;6262405;28;20241;-75
2023/07/20 15:17:25;;;;;;;3.20;1.52;;;;;;;;;;6261629;28;20257;-75
2023/07/20 15:20:31;;;;;;;5.13;1.30;;;;;;;;;;6261968;28;20509;-76
2023/07/20 15:23:35;;;;;;;2.97;1.45;;;;;;;;;;6262304;28;20236;-75
2023/07/20 15:26:41;;;;;;;0.90;0.90;;;;;;;;;;6262016;28;20572;-75
2023/07/20 15:29:46;;;;;;;2.47;1.33;;;;;;;;;;6262114;28;20245;-75
2023/07/20 15:32:50;;;;;;;1.77;1.20;;;;;;;;;;6261708;28;20244;-75
2023/07/20 15:35:57;;;;;;;1.60;1.50;;;;;;;;;;6262495;28;20240;-76
2023/07/20 15:39:00;;;;;;;1.30;1.25;;;;;;;;;;6262652;28;20240;-75
2023/07/20 15:42:05;;;;;;;1.58;1.48;;;;;;;;;;6260385;28;20303;-75
2023/07/20 15:45:11;;;;;;;1.42;1.33;;;;;;;;;;6261734;28;20240;-76
2023/07/20 15:48:15;;;;;;;2.72;1.60;;;;;;;;;;6261709;28;20417;-75
2023/07/20 15:51:20;;;;;;;2.80;1.45;;;;;;;;;;6262210;28;20244;-75
2023/07/20 15:54:24;;;;;;;3.80;1.35;;;;;;;;;;6262088;28;20237;-75
2023/07/20 15:57:27;;;;;;;1.40;1.40;;;;;;;;;;6261390;28;20249;-75
2023/07/20 16:00:33;;;;;;;1.65;1.60;;;;;;;;;;6261451;28;20505;-75
2023/07/20 16:03:36;;;;;;;2.70;1.52;;;;;;;;;;6260697;28;20284;-76
2023/07/20 16:06:41;;;;;;;2.47;1.40;;;;;;;;;;6261025;28;20236;-75
2023/07/20 16:09:45;;;;;;;2.08;1.50;;;;;;;;;;6261279;28;20236;-75
2023/07/20 16:12:49;;;;;;;1.55;1.50;;;;;;;;;;6261101;28;20232;-76
2023/07/20 16:15:55;;;;;;;1.25;1.25;;;;;;;;;;6260929;28;20239;-75
2023/07/20 16:18:59;;;;;;;1.20;1.20;;;;;;;;;;6261752;28;20248;-76
2023/07/20 16:22:03;;;;;;;1.30;1.20;;;;;;;;;;6261335;28;20496;-75
2023/07/20 16:25:08;;;;;;;1.40;1.30;;;;;;;;;;6260882;28;20241;-75
2023/07/20 16:28:12;;;;;;;1.60;1.50;;;;;;;;;;6261169;28;20259;-75
2023/07/20 16:31:17;;;;;;;2.00;1.25;;;;;;;;;;6260999;28;20243;-75
2023/07/20 16:34:21;;;;;;;1.30;1.30;;;;;;;;;;6261195;28;20249;-76
2023/07/20 16:37:27;;;;;;;1.23;1.23;;;;;;;;;;6264967;28;20244;-75
2023/07/20 16:40:34;;;;;;;3.35;1.27;;;;;;;;;;6266381;28;20497;-75
2023/07/20 16:43:58;;;;;;;1.20;1.20;;;;;;;;;;6265662;28;20429;-75
2023/07/20 16:47:08;;;;;;;1.92;1.92;;;;;;;;;;6266609;28;20236;-75
2023/07/20 16:50:12;;;;;;;1.38;1.30;;;;;;;;;;6266217;28;20244;-75
2023/07/20 16:53:16;;;;;;;2.00;1.80;;;;;;;;;;6265681;28;20235;-75
2023/07/20 16:56:20;;;;;;;1.50;1.50;;;;;;;;;;6265988;28;20500;-75
2023/07/20 16:59:24;;;;;;;3.70;1.38;;;;;;;;;;6265537;28;20244;-75
2023/07/20 17:02:29;;;;;;;2.08;1.60;;;;;;;;;;6265933;28;20283;-75
2023/07/20 17:05:33;;;;;;;1.42;1.42;;;;;;;;;;6265094;28;20244;-75
2023/07/20 17:08:36;;;;;;;1.35;1.35;;;;;;;;;;6265440;28;20263;-75
2023/07/20 17:11:40;;;;;;;1.63;1.50;;;;;;;;;;6265176;28;20242;-75
2023/07/20 17:14:44;;;;;;;1.42;1.42;;;;;;;;;;6265747;28;20256;-76
2023/07/20 17:17:51;;;;;;;1.70;1.70;;;;;;;;;;6265398;28;20244;-76
2023/07/20 17:20:55;;;;;;;1.70;1.60;;;;;;;;;;6264527;28;20241;-75
2023/07/20 17:23:59;;;;;;;2.53;2.40;;;;;;;;;;6264685;28;20244;-75
2023/07/20 17:27:05;;;;;;;1.20;1.20;;;;;;;;;;6265417;28;20245;-75
2023/07/20 17:30:12;;;;;;;1.23;1.20;;;;;;;;;;6264787;28;20268;-75
2023/07/20 17:33:18;;;;;;;1.98;1.38;;;;;;;;;;6264788;28;20237;-75
2023/07/20 17:36:22;;;;;;;2.17;1.10;;;;;;;;;;6264836;28;20498;-75
2023/07/20 17:39:28;;;;;;;1.20;1.20;;;;;;;;;;6264953;28;20252;-75
2023/07/20 17:42:35;;;;;;;2.28;2.10;;;;;;;;;;6264549;28;20267;-75
2023/07/20 17:45:41;;;;;;;1.35;1.33;;;;;;;;;;6265238;28;20244;-75
2023/07/20 17:48:48;;;;;;;1.55;1.15;;;;;;;;;;6263283;28;20260;-75
2023/07/20 17:51:52;;;;;;;1.48;1.48;;;;;;;;;;6264197;28;20232;-76
2023/07/20 17:54:55;;;;;;;1.38;1.27;;;;;;;;;;6264542;28;20529;-75
2023/07/20 17:57:59;;;;;;;1.00;1.00;;;;;;;;;;6264541;28;20240;-75
2023/07/20 18:01:03;;;;;;;1.35;1.30;;;;;;;;;;6264328;28;20272;-75
2023/07/20 18:04:08;;;;;;;1.13;1.13;;;;;;;;;;6264257;28;20312;-75
2023/07/20 18:07:12;;;;;;;1.80;1.30;;;;;;;;;;6264702;28;20236;-75
2023/07/20 18:10:16;;;;;;;2.35;1.20;;;;;;;;;;6264240;28;20275;-75
2023/07/20 18:13:19;;;;;;;1.20;1.20;;;;;;;;;;6264172;28;20275;-76
2023/07/20 18:16:23;;;;;;;1.65;1.65;;;;;;;;;;6264265;28;20489;-75
2023/07/20 18:19:29;;;;;;;1.00;1.00;;;;;;;;;;6264363;28;20244;-75
2023/07/20 18:22:33;;;;;;;1.40;1.30;;;;;;;;;;6263046;28;20244;-76
2023/07/20 18:25:37;;;;;;;1.08;1.08;;;;;;;;;;6263582;28;20240;-75
2023/07/20 18:28:40;;;;;;;1.13;1.13;;;;;;;;;;6263119;28;20264;-75
2023/07/20 18:31:45;;;;;;;1.10;1.10;;;;;;;;;;6263523;28;20244;-75
2023/07/20 18:34:50;;;;;;;1.20;1.20;;;;;;;;;;6262903;28;20244;-74